Skip to main content
 
Boise Air Terminal/Gowen Field, Boise, ID: 6/12/2024 06:53
Visibility10 statute milesclear sky
View 7-Day Forecast
Sky/CloudsSky Clear
Weather [last 24 hours]None
Pressure30.04 in.Hg
Dew Point33.1 °F (0.6 °C)
Relative Humidity37.5 %
Temperature59 °F (15 °C)red thermometer
Reading TimeMinimum to Maximum Temperature
6-hr ending 6/12@05:5360.1 °F to 75.9 °F (15.6 °C to 24.4 °C)
6-hr ending 6/11@23:5375.9 °F to 93 °F (24.4 °C to 33.9 °C)
6-hr ending 6/11@17:5384 °F to 93.9 °F (28.9 °C to 34.4 °C)
6-hr ending 6/11@11:5359 °F to 84.9 °F (15 °C to 29.4 °C)
24-hr ending 6/12@00:5359 °F to 93.9 °F (15 °C to 34.4 °C)
Wind9.21 MPH 8 KT green arrow pointing 292.5 degrees
Wind FromWest/Northwest (290 Degrees)
Twilight Begins2024-06-12T05:27:22
Sunrise2024-06-12T06:03:08
Sunset2024-06-12T21:26:55
Twilight Ends2024-06-12T22:02:43
METARKBOI 121253Z 29008KT 10SM CLR 15/01 A3004 RMK AO2 SLP145 T01500006